createdAt,value
2019-01-31T00:01:47.358Z,23.40
2019-01-31T00:04:25.404Z,23.10
2019-01-31T00:07:06.901Z,23.47
2019-01-31T00:09:44.880Z,22.83
2019-01-31T00:12:20.079Z,25.52
2019-01-31T00:14:54.635Z,23.37
2019-01-31T00:17:44.438Z,24.13
2019-01-31T00:20:34.047Z,25.13
2019-01-31T00:23:05.628Z,22.00
2019-01-31T00:25:52.191Z,23.00
2019-01-31T00:28:29.656Z,22.32
2019-01-31T00:31:04.131Z,23.53
2019-01-31T00:33:35.660Z,25.88
2019-01-31T00:36:13.310Z,23.93
2019-01-31T00:38:57.285Z,24.90
2019-01-31T00:41:46.852Z,22.63
2019-01-31T00:44:24.170Z,24.13
2019-01-31T00:47:04.603Z,22.90
2019-01-31T00:49:45.205Z,26.17
2019-01-31T00:52:34.654Z,23.43
2019-01-31T00:55:23.964Z,24.30
2019-01-31T00:57:58.227Z,22.93
2019-01-31T01:00:38.442Z,22.27
2019-01-31T01:03:26.799Z,23.47
2019-01-31T01:06:20.918Z,21.00
2019-01-31T01:09:07.596Z,22.60
2019-01-31T01:11:34.419Z,23.30
2019-01-31T01:14:11.801Z,24.53
2019-01-31T01:16:55.216Z,22.00
2019-01-31T01:19:38.877Z,22.67
2019-01-31T01:22:15.929Z,23.40
2019-01-31T01:24:53.249Z,21.60
2019-01-31T01:27:36.523Z,19.27
2019-01-31T01:30:20.205Z,23.05
2019-01-31T01:32:54.339Z,24.70
2019-01-31T01:35:31.622Z,19.60
2019-01-31T01:38:06.228Z,22.00
2019-01-31T01:40:40.983Z,19.85
2019-01-31T01:43:12.511Z,20.57
2019-01-31T01:45:59.240Z,19.90
2019-01-31T01:48:33.651Z,19.02
2019-01-31T01:51:17.210Z,21.17
2019-01-31T01:54:19.073Z,18.17
2019-01-31T01:56:50.671Z,18.13
2019-01-31T01:59:25.060Z,20.47
2019-01-31T02:02:14.455Z,18.90
2019-01-31T02:04:57.890Z,18.93
2019-01-31T02:07:38.538Z,21.70
2019-01-31T02:10:12.910Z,22.63
2019-01-31T02:13:00.676Z,19.83
2019-01-31T02:15:48.310Z,23.90
2019-01-31T02:18:28.803Z,24.82
2019-01-31T02:21:18.382Z,19.17
2019-01-31T02:23:58.761Z,22.43
2019-01-31T02:26:36.271Z,17.53
2019-01-31T02:29:19.682Z,18.93
2019-01-31T02:32:00.112Z,19.80
2019-01-31T02:34:40.269Z,24.30
2019-01-31T02:37:14.476Z,21.93
2019-01-31T02:39:49.079Z,18.70
2019-01-31T02:42:22.089Z,20.15
2019-01-31T02:44:56.213Z,19.07
2019-01-31T02:47:45.842Z,16.70
2019-01-31T02:50:35.320Z,10.55
2019-01-31T02:53:25.403Z,17.83
2019-01-31T02:56:22.448Z,13.60
2019-01-31T02:59:03.075Z,7.90
2019-01-31T03:01:43.380Z,8.07
2019-01-31T03:04:15.042Z,8.23
2019-01-31T03:06:46.752Z,12.63
2019-01-31T03:09:21.240Z,14.53
2019-01-31T03:11:58.875Z,9.07
2019-01-31T03:14:30.478Z,9.60
2019-01-31T03:17:23.137Z,7.73
2019-01-31T03:20:12.510Z,6.78
2019-01-31T03:22:47.010Z,9.17
2019-01-31T03:25:27.167Z,6.65
2019-01-31T03:28:31.707Z,14.33
2019-01-31T03:31:21.280Z,12.47
2019-01-31T03:34:04.683Z,11.57
2019-01-31T03:36:36.271Z,6.83
2019-01-31T03:39:19.944Z,14.03
2019-01-31T03:42:09.817Z,13.43
2019-01-31T03:44:44.409Z,12.30
2019-01-31T03:47:18.742Z,15.13
2019-01-31T03:49:53.299Z,15.23
2019-01-31T03:52:53.205Z,16.15
2019-01-31T03:55:27.736Z,15.48
2019-01-31T03:58:08.219Z,18.80
2019-01-31T04:00:48.670Z,15.47
2019-01-31T04:03:26.088Z,17.40
2019-01-31T04:05:57.674Z,18.25
2019-01-31T04:08:26.131Z,16.03
2019-01-31T04:10:54.657Z,18.13
2019-01-31T04:13:22.933Z,17.70
2019-01-31T04:15:51.334Z,19.40
2019-01-31T04:18:19.777Z,18.20
2019-01-31T04:20:51.074Z,17.47
2019-01-31T04:23:18.447Z,14.70
2019-01-31T04:25:46.803Z,16.47
2019-01-31T04:28:15.245Z,10.95
2019-01-31T04:30:43.604Z,20.77
2019-01-31T04:33:14.150Z,17.90
2019-01-31T04:35:42.556Z,18.53
2019-01-31T04:38:10.843Z,18.17
2019-01-31T04:40:39.275Z,17.10
2019-01-31T04:43:07.689Z,21.87
2019-01-31T04:45:35.987Z,20.03
2019-01-31T04:48:04.612Z,10.27
2019-01-31T04:50:33.152Z,19.50
2019-01-31T04:53:01.605Z,17.00
2019-01-31T04:55:30.068Z,18.10
2019-01-31T04:57:58.430Z,7.80
2019-01-31T05:00:26.787Z,19.47
2019-01-31T05:02:55.202Z,19.57
2019-01-31T05:05:23.586Z,17.27
2019-01-31T05:07:53.290Z,24.37
2019-01-31T05:10:21.637Z,23.77
2019-01-31T05:12:50.051Z,20.13
2019-01-31T05:15:18.360Z,14.58
2019-01-31T05:17:46.729Z,19.57
2019-01-31T05:20:17.249Z,14.30
2019-01-31T05:22:45.682Z,21.73
2019-01-31T05:25:14.809Z,22.33
2019-01-31T05:27:43.285Z,18.77
2019-01-31T05:30:14.156Z,13.30
2019-01-31T05:32:42.561Z,18.57
2019-01-31T05:35:11.871Z,18.35
2019-01-31T05:37:40.291Z,12.80
2019-01-31T05:40:12.054Z,20.13
2019-01-31T05:42:40.477Z,16.40
2019-01-31T05:45:20.333Z,18.37
2019-01-31T05:47:57.764Z,18.67
2019-01-31T05:50:28.293Z,18.40
2019-01-31T05:52:56.724Z,19.00
2019-01-31T05:55:25.097Z,14.70
2019-01-31T05:57:53.386Z,20.50
2019-01-31T06:00:25.106Z,16.40
2019-01-31T06:02:53.430Z,15.63
2019-01-31T06:05:21.705Z,16.40
2019-01-31T06:07:50.060Z,13.90
2019-01-31T06:10:18.470Z,14.67
2019-01-31T06:12:46.863Z,13.23
2019-01-31T06:15:18.671Z,18.42
2019-01-31T06:17:47.122Z,14.17
2019-01-31T06:20:23.517Z,16.30
2019-01-31T06:22:51.832Z,15.95
2019-01-31T06:25:20.175Z,18.20
2019-01-31T06:27:48.588Z,18.23
2019-01-31T06:30:18.565Z,17.90
2019-01-31T06:32:47.002Z,18.70
2019-01-31T06:35:15.580Z,16.40
2019-01-31T06:37:43.869Z,26.10
2019-01-31T06:40:15.475Z,23.80
2019-01-31T06:42:44.025Z,26.47
2019-01-31T06:45:17.496Z,9.48
2019-01-31T06:47:45.987Z,25.55
2019-01-31T06:50:14.311Z,27.02
2019-01-31T06:52:42.651Z,23.60
2019-01-31T06:55:12.304Z,10.20
2019-01-31T06:57:40.744Z,19.40
2019-01-31T07:00:20.814Z,11.75
2019-01-31T07:02:49.106Z,16.13
2019-01-31T07:05:17.414Z,18.70
2019-01-31T07:07:45.813Z,23.85
2019-01-31T07:10:20.225Z,21.43
2019-01-31T07:12:48.551Z,26.60
2019-01-31T07:15:16.978Z,28.42
2019-01-31T07:17:45.338Z,27.80
2019-01-31T07:20:17.540Z,24.92
2019-01-31T07:22:46.803Z,28.60
2019-01-31T07:25:22.145Z,26.85
2019-01-31T07:27:53.019Z,27.13
2019-01-31T07:30:23.012Z,15.00
2019-01-31T07:32:51.286Z,19.90
2019-01-31T07:35:19.651Z,26.80
2019-01-31T07:37:47.929Z,25.37
2019-01-31T07:40:22.104Z,20.12
2019-01-31T07:42:50.456Z,27.77
2019-01-31T07:45:24.352Z,25.43
2019-01-31T07:47:52.780Z,29.67
2019-01-31T07:50:21.119Z,28.80
2019-01-31T07:52:49.474Z,27.83
2019-01-31T07:55:17.987Z,27.27
2019-01-31T07:57:46.266Z,28.03
2019-01-31T08:00:20.787Z,25.57
2019-01-31T08:02:49.170Z,26.17
2019-01-31T08:05:20.342Z,29.30
2019-01-31T08:07:49.459Z,23.47
2019-01-31T08:10:32.764Z,21.57
2019-01-31T08:13:01.041Z,25.50
2019-01-31T08:15:29.331Z,24.90
2019-01-31T08:17:57.720Z,30.10
2019-01-31T08:20:26.097Z,29.17
2019-01-31T08:22:54.399Z,25.90
2019-01-31T08:25:25.337Z,27.63
2019-01-31T08:27:54.820Z,25.52
2019-01-31T08:30:31.982Z,21.33
2019-01-31T08:33:00.271Z,26.40
2019-01-31T08:35:28.649Z,28.67
2019-01-31T08:37:57.045Z,20.47
2019-01-31T08:40:25.348Z,19.67
2019-01-31T08:42:53.638Z,24.00
2019-01-31T08:45:22.046Z,25.50
2019-01-31T08:47:50.407Z,27.13
2019-01-31T08:50:21.467Z,24.83
2019-01-31T08:52:52.769Z,17.47
2019-01-31T08:55:22.195Z,21.37
2019-01-31T08:57:50.557Z,20.70
2019-01-31T09:00:21.484Z,22.47
2019-01-31T09:02:50.160Z,24.77
2019-01-31T09:05:25.869Z,25.17
2019-01-31T09:07:54.733Z,25.80
2019-01-31T09:10:28.987Z,28.57
2019-01-31T09:12:59.399Z,27.90
2019-01-31T09:15:28.939Z,26.80
2019-01-31T09:17:57.278Z,15.93
2019-01-31T09:20:29.127Z,28.13
2019-01-31T09:23:12.418Z,21.53
2019-01-31T09:26:10.498Z,24.77
2019-01-31T09:28:45.080Z,24.17
2019-01-31T09:31:34.102Z,23.73
2019-01-31T09:34:08.604Z,25.53
2019-01-31T09:37:07.975Z,24.77
2019-01-31T09:39:54.537Z,27.63
2019-01-31T09:42:43.996Z,24.73
2019-01-31T09:45:15.551Z,25.12
2019-01-31T09:47:55.785Z,23.03
2019-01-31T09:50:50.886Z,24.50
2019-01-31T09:53:29.103Z,23.50
2019-01-31T09:56:12.548Z,25.53
2019-01-31T09:59:03.652Z,24.17
2019-01-31T10:02:09.982Z,23.63
2019-01-31T10:04:44.109Z,26.33
2019-01-31T10:07:21.667Z,23.80
2019-01-31T10:10:14.316Z,23.63
2019-01-31T10:13:04.938Z,23.40
2019-01-31T10:15:51.510Z,23.20
2019-01-31T10:18:41.644Z,23.90
2019-01-31T10:21:16.226Z,22.13
2019-01-31T10:23:59.863Z,25.03
2019-01-31T10:26:56.203Z,23.70
2019-01-31T10:29:46.146Z,21.87
2019-01-31T10:32:34.707Z,22.53
2019-01-31T10:35:18.163Z,24.50
2019-01-31T10:37:52.441Z,24.13
2019-01-31T10:40:26.909Z,23.53
2019-01-31T10:43:12.794Z,22.57
2019-01-31T10:45:47.286Z,21.23
2019-01-31T10:48:21.767Z,23.13
2019-01-31T10:51:08.455Z,21.27
2019-01-31T10:53:40.093Z,25.00
2019-01-31T10:56:38.427Z,24.47
2019-01-31T10:59:10.039Z,22.47
2019-01-31T11:01:50.190Z,26.40
2019-01-31T11:04:36.636Z,25.07
2019-01-31T11:07:24.973Z,25.33
2019-01-31T11:09:59.082Z,25.55
2019-01-31T11:13:00.860Z,26.50
2019-01-31T11:15:44.496Z,23.90
2019-01-31T11:18:22.096Z,22.77
2019-01-31T11:20:56.545Z,25.30
2019-01-31T11:23:28.928Z,24.47
2019-01-31T11:26:12.631Z,20.60
2019-01-31T11:29:13.995Z,22.40
2019-01-31T11:31:58.612Z,20.53
2019-01-31T11:34:42.242Z,23.03
2019-01-31T11:37:46.688Z,22.60
2019-01-31T11:40:55.191Z,19.27
2019-01-31T11:43:35.669Z,21.75
2019-01-31T11:46:22.565Z,20.80
2019-01-31T11:48:54.105Z,19.40
2019-01-31T11:51:49.683Z,21.05
2019-01-31T11:54:24.214Z,21.60
2019-01-31T11:57:15.240Z,23.85
2019-01-31T11:59:43.591Z,22.95
2019-01-31T12:02:12.124Z,22.42
2019-01-31T12:04:40.568Z,20.60
2019-01-31T12:07:08.979Z,22.05
2019-01-31T12:09:37.254Z,18.80
2019-01-31T12:12:05.625Z,20.47
2019-01-31T12:14:33.968Z,19.40
2019-01-31T12:17:02.335Z,19.47
2019-01-31T12:19:30.624Z,19.70
2019-01-31T12:21:59.025Z,19.07
2019-01-31T12:24:27.493Z,16.87
2019-01-31T12:26:55.821Z,16.50
2019-01-31T12:29:24.144Z,15.33
2019-01-31T12:31:52.487Z,16.93
2019-01-31T12:34:20.927Z,15.58
2019-01-31T12:36:49.292Z,16.40
2019-01-31T12:39:17.675Z,14.23
2019-01-31T12:41:46.092Z,15.03
2019-01-31T12:44:14.435Z,13.57
2019-01-31T12:46:42.707Z,12.87
2019-01-31T12:49:11.115Z,11.73
2019-01-31T12:51:39.391Z,13.60
2019-01-31T12:54:07.713Z,11.87
2019-01-31T12:56:36.085Z,11.80
2019-01-31T12:59:04.615Z,11.68
2019-01-31T13:01:32.963Z,12.27
2019-01-31T13:04:01.333Z,12.10
2019-01-31T13:06:29.744Z,11.20
2019-01-31T13:08:58.090Z,10.43
2019-01-31T13:11:26.487Z,10.57
2019-01-31T13:13:54.796Z,11.63
2019-01-31T13:16:23.179Z,11.40
2019-01-31T13:18:51.590Z,11.20
2019-01-31T13:21:20.880Z,9.65
2019-01-31T13:23:49.921Z,10.33
2019-01-31T13:26:18.355Z,10.03
2019-01-31T13:28:46.753Z,10.03
2019-01-31T13:31:15.116Z,11.50
2019-01-31T13:33:46.565Z,11.10
2019-01-31T13:36:14.244Z,10.60
2019-01-31T13:38:42.622Z,10.80
2019-01-31T13:41:11.123Z,11.93
2019-01-31T13:43:39.472Z,11.70
2019-01-31T13:46:09.212Z,11.60
2019-01-31T13:48:37.530Z,11.30
2019-01-31T13:51:07.340Z,10.70
2019-01-31T13:53:35.726Z,11.80
2019-01-31T13:56:06.139Z,10.75
2019-01-31T13:58:34.713Z,11.37
2019-01-31T14:01:03.132Z,11.27
2019-01-31T14:03:31.451Z,9.70
2019-01-31T14:05:59.791Z,9.70
2019-01-31T14:08:28.233Z,9.90
2019-01-31T14:10:56.494Z,10.40
2019-01-31T14:13:24.799Z,10.07
2019-01-31T14:15:53.946Z,10.00
2019-01-31T14:18:22.584Z,9.38
2019-01-31T14:20:50.866Z,9.03
2019-01-31T14:23:19.207Z,8.98
2019-01-31T14:25:47.623Z,9.50
2019-01-31T14:28:15.996Z,9.93
2019-01-31T14:30:44.356Z,8.10
2019-01-31T14:33:14.328Z,9.17
2019-01-31T14:35:42.687Z,9.80
2019-01-31T14:38:11.077Z,9.10
2019-01-31T14:40:39.393Z,10.30
2019-01-31T14:43:07.662Z,9.78
2019-01-31T14:45:35.932Z,9.87
2019-01-31T14:48:06.212Z,10.60
2019-01-31T14:50:35.955Z,10.27
2019-01-31T14:53:04.927Z,8.73
2019-01-31T14:55:33.287Z,12.53
2019-01-31T14:58:01.643Z,12.37
2019-01-31T15:00:33.988Z,12.33
2019-01-31T15:03:02.388Z,12.67
2019-01-31T15:05:30.737Z,11.00
2019-01-31T15:07:59.097Z,12.80
2019-01-31T15:10:30.113Z,13.60
2019-01-31T15:12:58.547Z,14.60
2019-01-31T15:15:27.002Z,13.17
2019-01-31T15:17:55.436Z,11.47
2019-01-31T15:20:35.804Z,13.13
2019-01-31T15:22:56.084Z,11.67
2019-01-31T15:25:24.579Z,12.33
2019-01-31T15:27:52.942Z,11.90
2019-01-31T15:30:30.200Z,13.20
2019-01-31T15:32:58.558Z,11.50
2019-01-31T15:35:26.926Z,11.10
2019-01-31T15:37:55.311Z,10.30
2019-01-31T15:40:29.904Z,9.80
2019-01-31T15:42:58.261Z,11.90
2019-01-31T15:45:26.598Z,9.58
2019-01-31T15:47:55.128Z,9.50
2019-01-31T15:50:23.456Z,8.27
2019-01-31T15:52:51.789Z,6.37
2019-01-31T15:55:23.127Z,8.97
2019-01-31T15:57:51.535Z,10.00
2019-01-31T16:00:27.416Z,8.43
2019-01-31T16:02:55.855Z,10.80
2019-01-31T16:05:24.214Z,9.40
2019-01-31T16:07:52.595Z,8.73
2019-01-31T16:10:21.011Z,9.43
2019-01-31T16:12:49.343Z,8.70
2019-01-31T16:15:18.914Z,8.90
2019-01-31T16:17:47.268Z,10.23
2019-01-31T16:20:15.709Z,10.40
2019-01-31T16:22:44.095Z,9.30
2019-01-31T16:25:12.475Z,10.50
2019-01-31T16:27:40.749Z,10.83
2019-01-31T16:30:17.358Z,10.70
2019-01-31T16:32:45.665Z,10.10
2019-01-31T16:35:17.254Z,10.53
2019-01-31T16:37:46.664Z,10.47
2019-01-31T16:40:17.390Z,9.83
2019-01-31T16:42:45.831Z,10.15
2019-01-31T16:45:16.269Z,10.77
2019-01-31T16:47:44.602Z,9.40
2019-01-31T16:50:17.111Z,11.05
2019-01-31T16:52:45.587Z,16.73
2019-01-31T16:55:16.586Z,12.10
2019-01-31T16:57:45.695Z,12.13
2019-01-31T17:00:22.862Z,11.78
2019-01-31T17:02:51.152Z,12.20
2019-01-31T17:05:22.603Z,10.70
2019-01-31T17:07:51.099Z,11.35
2019-01-31T17:10:19.451Z,9.80
2019-01-31T17:12:47.737Z,11.67
2019-01-31T17:15:18.815Z,11.63
2019-01-31T17:17:47.232Z,11.60
2019-01-31T17:20:18.780Z,13.62
2019-01-31T17:22:47.109Z,13.37
2019-01-31T17:25:15.536Z,13.33
2019-01-31T17:27:44.088Z,11.20
2019-01-31T17:30:15.670Z,11.97
2019-01-31T17:32:44.111Z,11.00
2019-01-31T17:35:12.658Z,11.15
2019-01-31T17:37:41.061Z,11.40
2019-01-31T17:40:18.235Z,12.23
2019-01-31T17:42:46.626Z,21.63
2019-01-31T17:45:29.634Z,16.43
2019-01-31T17:47:47.762Z,13.03
2019-01-31T17:50:19.170Z,12.23
2019-01-31T17:52:49.156Z,11.50
2019-01-31T17:55:25.216Z,13.35
2019-01-31T17:57:53.602Z,12.15
2019-01-31T18:00:32.361Z,12.50
2019-01-31T18:03:00.772Z,11.87
2019-01-31T18:05:29.135Z,12.40
2019-01-31T18:07:57.976Z,12.50
2019-01-31T18:10:27.244Z,12.03
2019-01-31T18:12:55.523Z,12.67
2019-01-31T18:15:26.066Z,15.90
2019-01-31T18:17:54.907Z,12.78
2019-01-31T18:20:24.037Z,13.00
2019-01-31T18:22:52.322Z,12.60
2019-01-31T18:25:20.696Z,14.25
2019-01-31T18:27:53.075Z,13.37
2019-01-31T18:30:33.384Z,13.28
2019-01-31T18:33:01.656Z,14.23
2019-01-31T18:35:29.975Z,13.67
2019-01-31T18:37:58.766Z,14.97
2019-01-31T18:40:33.885Z,14.90
2019-01-31T18:43:02.831Z,14.63
2019-01-31T18:45:36.401Z,12.37
2019-01-31T18:48:07.060Z,13.80
2019-01-31T18:50:40.758Z,13.57
2019-01-31T18:53:09.112Z,15.13
2019-01-31T18:55:37.635Z,15.83
2019-01-31T18:58:06.986Z,35.63
2019-01-31T19:00:38.663Z,26.23
2019-01-31T19:03:08.177Z,22.47
2019-01-31T19:05:37.560Z,18.10
2019-01-31T19:08:08.833Z,18.30
2019-01-31T19:10:43.303Z,17.33
2019-01-31T19:13:07.373Z,15.37
2019-01-31T19:15:35.825Z,15.47
2019-01-31T19:18:06.334Z,14.97
2019-01-31T19:20:36.885Z,16.00
2019-01-31T19:23:07.177Z,16.90
2019-01-31T19:25:35.482Z,16.57
2019-01-31T19:28:05.354Z,15.40
2019-01-31T19:30:36.778Z,19.13
2019-01-31T19:33:06.305Z,16.60
2019-01-31T19:35:34.855Z,16.00
2019-01-31T19:38:03.421Z,17.23
2019-01-31T19:40:37.308Z,18.12
2019-01-31T19:43:06.396Z,16.32
2019-01-31T19:45:43.129Z,16.00
2019-01-31T19:48:11.627Z,17.37
2019-01-31T19:50:39.951Z,15.53
2019-01-31T19:53:08.448Z,16.03
2019-01-31T19:55:36.929Z,16.63
2019-01-31T19:58:05.505Z,15.40
2019-01-31T20:00:34.832Z,15.47
2019-01-31T20:03:03.602Z,15.50
2019-01-31T20:05:32.138Z,15.30
2019-01-31T20:08:03.423Z,17.10
2019-01-31T20:10:33.028Z,18.77
2019-01-31T20:13:01.996Z,17.48
2019-01-31T20:15:31.343Z,18.33
2019-01-31T20:17:59.969Z,17.87
2019-01-31T20:20:31.459Z,16.87
2019-01-31T20:23:00.687Z,14.17
2019-01-31T20:25:30.778Z,17.20
2019-01-31T20:28:00.986Z,14.93
2019-01-31T20:30:33.303Z,14.00
2019-01-31T20:33:02.379Z,14.60
2019-01-31T20:35:30.874Z,12.73
2019-01-31T20:37:59.910Z,12.37
2019-01-31T20:40:31.396Z,14.40
2019-01-31T20:43:01.521Z,14.40
2019-01-31T20:45:32.491Z,14.10
2019-01-31T20:48:00.883Z,15.10
2019-01-31T20:50:32.799Z,13.50
2019-01-31T20:53:01.408Z,14.07
2019-01-31T20:55:30.162Z,10.03
2019-01-31T20:57:58.440Z,12.98
2019-01-31T21:00:38.006Z,12.40
2019-01-31T21:03:08.626Z,11.70
2019-01-31T21:05:37.119Z,11.77
2019-01-31T21:08:06.918Z,12.50
2019-01-31T21:10:35.250Z,12.80
2019-01-31T21:13:03.938Z,12.30
2019-01-31T21:15:32.391Z,10.80
2019-01-31T21:18:00.684Z,9.97
2019-01-31T21:20:29.117Z,12.40
2019-01-31T21:22:57.389Z,9.67
2019-01-31T21:25:25.730Z,9.30
2019-01-31T21:27:54.060Z,10.07
2019-01-31T21:30:32.403Z,9.80
2019-01-31T21:33:16.765Z,9.90
2019-01-31T21:35:46.087Z,10.00
2019-01-31T21:38:14.605Z,8.85
2019-01-31T21:40:43.193Z,8.88
2019-01-31T21:43:11.564Z,9.33
2019-01-31T21:45:40.926Z,8.30
2019-01-31T21:48:10.407Z,8.88
2019-01-31T21:50:47.443Z,7.10
2019-01-31T21:53:17.705Z,8.70
2019-01-31T21:55:58.368Z,9.63
2019-01-31T21:58:34.965Z,8.53
2019-01-31T22:01:11.500Z,6.37
2019-01-31T22:03:40.762Z,7.90
2019-01-31T22:06:09.226Z,8.63
2019-01-31T22:08:37.549Z,7.50
2019-01-31T22:11:06.081Z,8.70
2019-01-31T22:13:34.509Z,9.37
2019-01-31T22:16:03.004Z,8.10
2019-01-31T22:18:31.412Z,8.67
2019-01-31T22:20:59.771Z,9.08
2019-01-31T22:23:28.445Z,8.37
2019-01-31T22:25:56.763Z,8.40
2019-01-31T22:28:25.145Z,7.90
2019-01-31T22:30:53.488Z,8.93
2019-01-31T22:33:23.493Z,7.58
2019-01-31T22:35:51.768Z,7.87
2019-01-31T22:38:20.200Z,8.90
2019-01-31T22:40:48.462Z,7.33
2019-01-31T22:43:16.817Z,7.23
2019-01-31T22:45:45.228Z,10.63
2019-01-31T22:48:13.579Z,9.17
2019-01-31T22:50:42.007Z,7.90
2019-01-31T22:53:10.476Z,7.27
2019-01-31T22:55:38.957Z,7.00
2019-01-31T22:58:07.226Z,8.20
2019-01-31T23:00:49.443Z,8.20
2019-01-31T23:03:17.755Z,7.67
2019-01-31T23:05:46.098Z,7.73
2019-01-31T23:08:14.447Z,6.03
2019-01-31T23:10:42.779Z,6.07
2019-01-31T23:13:11.233Z,6.40
2019-01-31T23:15:39.646Z,7.83
2019-01-31T23:18:08.025Z,6.43
2019-01-31T23:20:36.435Z,7.60
2019-01-31T23:23:04.702Z,7.83
2019-01-31T23:25:39.741Z,5.70
2019-01-31T23:28:03.124Z,6.67
2019-01-31T23:30:31.515Z,7.77
2019-01-31T23:32:59.911Z,6.90
2019-01-31T23:35:28.302Z,6.30
2019-01-31T23:37:56.693Z,6.13
2019-01-31T23:40:25.051Z,7.50
2019-01-31T23:42:53.435Z,7.87
2019-01-31T23:45:21.762Z,7.15
2019-01-31T23:47:50.138Z,5.87
2019-01-31T23:50:18.477Z,6.27
2019-01-31T23:52:46.992Z,6.80
2019-01-31T23:55:18.610Z,5.90
2019-01-31T23:57:46.942Z,6.77
